Time;durP1;ratioP1;P1;durP2;ratioP2;P2;SDS_P1;SDS_P2;PMS_P1;PMS_P2;Temp;Humidity;BMP_temperature;BMP_pressure;BME280_temperature;BME280_humidity;BME280_pressure;Samples;Min_cycle;Max_cycle;Signal;HPM_P1;HPM_P2
2022/11/27 00:00:18;;;;;;;16.65;5.25;;;7.60;88.70;;;;;;9180501;19;20356;-67
2022/11/27 00:03:24;;;;;;;15.10;3.97;;;7.60;88.80;;;;;;9179898;19;20471;-66
2022/11/27 00:06:30;;;;;;;20.33;5.07;;;7.60;88.80;;;;;;9182124;19;20020;-66
2022/11/27 00:09:34;;;;;;;14.63;4.45;;;7.50;88.70;;;;;;9180312;19;20011;-66
2022/11/27 00:12:37;;;;;;;24.02;5.38;;;7.50;88.80;;;;;;9182013;19;20045;-67
2022/11/27 00:15:41;;;;;;;18.25;5.65;;;7.50;88.80;;;;;;9181561;19;20018;-69
2022/11/27 00:18:48;;;;;;;;;;;7.50;88.80;;;;;;9180875;19;20010;-68
2022/11/27 00:21:52;;;;;;;19.13;4.72;;;7.40;88.70;;;;;;9181997;19;19955;-69
2022/11/27 00:24:56;;;;;;;19.55;5.35;;;7.40;88.70;;;;;;9175390;19;20018;-67
2022/11/27 00:27:59;;;;;;;11.60;3.90;;;7.40;88.70;;;;;;9181028;19;20014;-67
2022/11/27 00:31:05;;;;;;;15.15;4.63;;;7.40;88.70;;;;;;9176360;19;20467;-69
2022/11/27 00:34:11;;;;;;;12.20;3.88;;;7.40;88.70;;;;;;9178895;19;20018;-69
2022/11/27 00:37:15;;;;;;;11.73;4.40;;;7.30;88.70;;;;;;9181174;19;20022;-66
2022/11/27 00:40:19;;;;;;;;;;;7.30;88.70;;;;;;9182277;19;20486;-68
2022/11/27 00:43:23;;;;;;;16.27;4.40;;;7.30;88.70;;;;;;9180447;19;19926;-67
2022/11/27 00:46:29;;;;;;;15.48;4.35;;;7.30;88.70;;;;;;9179698;19;20078;-68
2022/11/27 00:49:35;;;;;;;15.75;4.20;;;7.30;88.70;;;;;;9177662;19;20042;-67
2022/11/27 00:52:39;;;;;;;13.75;4.72;;;7.20;88.70;;;;;;9176838;19;20014;-66
2022/11/27 00:55:43;;;;;;;12.15;5.07;;;7.20;88.70;;;;;;9180552;19;20006;-68
2022/11/27 00:58:47;;;;;;;19.30;4.88;;;7.20;88.70;;;;;;9180276;19;20032;-69
2022/11/27 01:01:51;;;;;;;14.00;4.78;;;7.20;88.70;;;;;;9177755;19;20023;-68
2022/11/27 01:04:57;;;;;;;23.13;5.43;;;7.20;88.70;;;;;;9180141;19;20007;-66
2022/11/27 01:08:01;;;;;;;17.63;4.68;;;7.20;88.70;;;;;;9180039;19;20006;-67
2022/11/27 01:11:05;;;;;;;16.27;4.55;;;7.10;88.70;;;;;;9176965;19;20014;-66
2022/11/27 01:14:12;;;;;;;14.18;5.10;;;7.10;88.60;;;;;;9178043;19;20051;-67
2022/11/27 01:17:16;;;;;;;17.23;4.68;;;7.10;88.60;;;;;;9180183;19;20026;-67
2022/11/27 01:20:23;;;;;;;11.68;4.35;;;7.10;88.60;;;;;;9179930;19;20014;-67
2022/11/27 01:23:27;;;;;;;16.42;4.40;;;7.00;88.50;;;;;;9173040;19;20498;-68
2022/11/27 01:26:31;;;;;;;14.45;4.32;;;7.00;88.50;;;;;;9178151;19;20364;-68
2022/11/27 01:29:35;;;;;;;13.40;4.30;;;7.00;88.60;;;;;;9178621;19;20006;-68
2022/11/27 01:32:39;;;;;;;;;;;6.90;88.50;;;;;;9178107;19;20018;-66
2022/11/27 01:35:53;;;;;;;12.52;4.65;;;6.90;88.50;;;;;;9179733;19;20284;-67
2022/11/27 01:38:57;;;;;;;29.33;5.65;;;6.90;88.50;;;;;;9178924;19;20106;-68
2022/11/27 01:42:01;;;;;;;13.95;5.32;;;6.90;88.50;;;;;;9176323;19;20023;-68
2022/11/27 01:45:05;;;;;;;17.13;5.88;;;6.90;88.60;;;;;;9175850;19;20014;-66
2022/11/27 01:48:13;;;;;;;16.23;5.25;;;6.90;88.60;;;;;;9179434;19;20380;-68
2022/11/27 01:51:20;;;;;;;24.00;5.55;;;6.80;88.50;;;;;;9174813;19;20022;-67
2022/11/27 01:54:27;;;;;;;16.90;5.38;;;6.80;88.50;;;;;;9178289;19;20043;-67
2022/11/27 01:57:37;;;;;;;17.48;4.97;;;6.80;88.60;;;;;;9178032;19;20014;-67
2022/11/27 02:00:41;;;;;;;18.73;4.85;;;6.80;88.50;;;;;;9176829;19;20024;-68
2022/11/27 02:03:45;;;;;;;;;;;6.80;88.60;;;;;;9178394;19;20341;-68
2022/11/27 02:06:50;;;;;;;18.23;4.60;;;6.70;88.50;;;;;;9176783;19;20349;-67
2022/11/27 02:09:54;;;;;;;23.67;5.28;;;6.70;88.50;;;;;;9169612;19;20018;-66
2022/11/27 02:13:00;;;;;;;;;;;6.70;88.50;;;;;;9174645;19;20014;-66
2022/11/27 02:16:13;;;;;;;18.27;4.97;;;6.70;88.50;;;;;;9177609;19;19951;-72
2022/11/27 02:19:32;;;;;;;11.55;4.13;;;6.70;88.50;;;;;;9175136;19;20014;-67
2022/11/27 02:23:01;;;;;;;30.92;6.75;;;6.70;88.50;;;;;;9170582;19;21655;-67
2022/11/27 02:26:28;;;;;;;16.77;3.97;;;6.70;88.60;;;;;;9176539;19;20025;-67
2022/11/27 02:29:35;;;;;;;19.50;5.35;;;6.70;88.50;;;;;;9176287;19;20333;-66
2022/11/27 02:32:42;;;;;;;24.73;4.68;;;6.60;88.50;;;;;;9174971;19;20022;-67
2022/11/27 02:35:51;;;;;;;16.95;4.13;;;6.60;88.50;;;;;;9175514;19;20105;-66
2022/11/27 02:39:00;;;;;;;17.60;3.92;;;6.60;88.50;;;;;;9176939;19;20018;-68
2022/11/27 02:42:12;;;;;;;19.65;5.40;;;6.60;88.50;;;;;;9174500;19;20018;-67
2022/11/27 02:45:23;;;;;;;16.52;5.80;;;6.50;88.40;;;;;;9174896;19;20033;-67
2022/11/27 02:48:33;;;;;;;21.15;4.65;;;6.50;88.40;;;;;;9176659;19;20807;-67
2022/11/27 02:51:43;;;;;;;12.32;4.10;;;6.50;88.40;;;;;;9171725;19;20015;-68
2022/11/27 02:54:49;;;;;;;16.42;4.70;;;6.50;88.40;;;;;;9179619;19;20031;-68
2022/11/27 02:57:56;;;;;;;19.92;5.78;;;6.50;88.50;;;;;;9183662;19;20387;-68
2022/11/27 03:01:03;;;;;;;10.27;3.75;;;6.40;88.50;;;;;;9184280;19;20013;-66
2022/11/27 03:04:10;;;;;;;16.35;4.00;;;6.40;88.40;;;;;;9184283;19;20006;-67
2022/11/27 03:07:18;;;;;;;15.65;3.97;;;6.40;88.50;;;;;;9181976;19;20023;-66
2022/11/27 03:10:31;;;;;;;13.73;4.68;;;6.40;88.40;;;;;;9182480;19;20018;-66
2022/11/27 03:13:38;;;;;;;11.55;4.13;;;6.30;88.40;;;;;;9183482;19;20015;-66
2022/11/27 03:16:53;;;;;;;15.55;3.50;;;6.40;88.50;;;;;;9182945;19;20491;-67
2022/11/27 03:20:01;;;;;;;22.88;4.22;;;6.30;88.40;;;;;;9179512;19;20015;-65
2022/11/27 03:23:05;;;;;;;15.23;3.38;;;6.30;88.50;;;;;;9178884;19;20082;-70
2022/11/27 03:26:09;;;;;;;14.50;4.20;;;6.30;88.40;;;;;;9181796;19;20021;-69
2022/11/27 03:29:16;;;;;;;14.50;3.50;;;6.30;88.40;;;;;;9180583;19;20007;-67
2022/11/27 03:32:23;;;;;;;12.68;3.70;;;6.30;88.50;;;;;;9180768;19;20048;-68
2022/11/27 03:35:27;;;;;;;20.50;4.40;;;6.30;88.50;;;;;;9181799;19;20411;-69
2022/11/27 03:38:31;;;;;;;17.90;3.90;;;6.30;88.50;;;;;;9181626;19;20019;-69
2022/11/27 03:41:44;;;;;;;16.38;3.80;;;6.30;88.50;;;;;;9183073;19;20021;-66
2022/11/27 03:44:58;;;;;;;16.40;3.55;;;6.30;88.50;;;;;;9180868;19;20488;-67
2022/11/27 03:48:15;;;;;;;17.08;4.05;;;6.30;88.50;;;;;;9180623;19;20033;-68
2022/11/27 03:51:23;;;;;;;9.93;3.50;;;6.30;88.50;;;;;;9181609;19;20011;-68
2022/11/27 03:54:39;;;;;;;17.00;3.88;;;6.30;89.10;;;;;;9182474;19;20386;-69
2022/11/27 03:57:49;;;;;;;15.45;4.25;;;6.30;88.50;;;;;;9182772;19;20038;-69
2022/11/27 04:00:55;;;;;;;15.85;4.30;;;6.30;88.50;;;;;;9181246;19;20013;-69
2022/11/27 04:04:01;;;;;;;18.80;3.88;;;6.30;88.50;;;;;;9183350;19;20015;-68
2022/11/27 04:07:05;;;;;;;11.60;4.10;;;6.30;88.50;;;;;;9179696;19;20018;-67
2022/11/27 04:10:10;;;;;;;11.63;3.45;;;6.30;88.60;;;;;;9179983;19;20044;-68
2022/11/27 04:13:15;;;;;;;11.95;3.53;;;6.30;88.60;;;;;;9182400;19;20010;-67
2022/11/27 04:16:19;;;;;;;11.85;3.45;;;6.30;88.50;;;;;;9171476;19;20064;-70
2022/11/27 04:19:24;;;;;;;21.33;4.72;;;6.30;88.50;;;;;;9176987;19;20017;-69
2022/11/27 04:22:28;;;;;;;10.77;3.08;;;6.30;88.50;;;;;;9177612;19;20018;-69
2022/11/27 04:25:32;;;;;;;11.20;4.40;;;6.30;88.50;;;;;;9181405;19;20010;-68
2022/11/27 04:28:36;;;;;;;;;;;6.30;88.50;;;;;;9180309;19;20015;-67
2022/11/27 04:31:39;;;;;;;8.18;3.97;;;6.30;88.50;;;;;;9177425;19;19942;-68
2022/11/27 04:34:45;;;;;;;;;;;6.30;88.40;;;;;;9182044;19;20016;-69
2022/11/27 04:37:49;;;;;;;11.05;3.17;;;6.30;88.40;;;;;;9180867;19;20713;-68
2022/11/27 04:40:53;;;;;;;13.70;3.40;;;6.30;88.40;;;;;;9180967;19;20457;-69
2022/11/27 04:43:57;;;;;;;17.70;3.17;;;6.30;88.50;;;;;;9180318;19;20006;-67
2022/11/27 04:47:01;;;;;;;14.80;3.53;;;6.20;88.30;;;;;;9179844;19;20038;-68
2022/11/27 04:50:09;;;;;;;10.27;3.33;;;6.30;88.50;;;;;;9177778;19;20022;-67
2022/11/27 04:53:13;;;;;;;16.17;3.80;;;6.30;88.50;;;;;;9178821;19;20014;-68
2022/11/27 04:56:16;;;;;;;10.30;3.92;;;6.30;88.40;;;;;;9181077;19;20022;-70
2022/11/27 04:59:21;;;;;;;14.98;3.97;;;6.30;88.50;;;;;;9180051;19;20357;-68
2022/11/27 05:02:24;;;;;;;12.57;3.47;;;6.30;88.40;;;;;;9179676;19;20325;-69
2022/11/27 05:05:30;;;;;;;;;;;6.30;88.30;;;;;;9179422;19;20011;-67
2022/11/27 05:08:34;;;;;;;13.10;3.50;;;6.30;88.30;;;;;;9178555;19;20522;-69
2022/11/27 05:11:37;;;;;;;;;;;6.30;88.30;;;;;;9176259;19;20022;-67
2022/11/27 05:14:41;;;;;;;14.50;4.00;;;6.30;88.30;;;;;;9180168;19;20340;-67
2022/11/27 05:17:46;;;;;;;8.30;3.17;;;6.30;88.20;;;;;;9177206;19;20011;-68
2022/11/27 05:20:57;;;;;;;10.68;3.65;;;6.30;88.30;;;;;;9179962;19;20011;-70
2022/11/27 05:24:00;;;;;;;9.65;3.55;;;6.30;88.30;;;;;;9173983;19;20025;-68
2022/11/27 05:27:04;;;;;;;;;;;6.30;88.30;;;;;;9180656;19;20014;-69
2022/11/27 05:30:09;;;;;;;9.57;3.30;;;6.30;88.30;;;;;;9178671;19;19915;-67
2022/11/27 05:33:13;;;;;;;13.82;3.58;;;6.20;88.20;;;;;;9179482;19;20022;-68
2022/11/27 05:36:19;;;;;;;10.65;3.90;;;6.20;88.20;;;;;;9177600;19;20022;-69
2022/11/27 05:39:23;;;;;;;12.80;3.85;;;6.20;88.20;;;;;;9177834;19;20010;-68
2022/11/27 05:42:27;;;;;;;12.52;3.92;;;6.20;88.20;;;;;;9177135;19;20014;-68
2022/11/27 05:45:31;;;;;;;15.40;3.92;;;6.20;88.20;;;;;;9177354;19;20011;-67
2022/11/27 05:48:35;;;;;;;11.63;3.75;;;6.20;88.10;;;;;;9179535;19;20073;-69
2022/11/27 05:51:42;;;;;;;8.63;3.65;;;6.20;88.10;;;;;;9175476;19;20011;-69
2022/11/27 05:54:55;;;;;;;7.55;3.03;;;6.20;88.20;;;;;;9177455;19;20026;-67
2022/11/27 05:58:00;;;;;;;14.88;4.22;;;6.20;88.20;;;;;;9179021;19;20014;-68
2022/11/27 06:01:04;;;;;;;16.10;4.03;;;6.20;88.10;;;;;;9178189;19;20014;-68
2022/11/27 06:04:08;;;;;;;13.70;3.70;;;6.20;88.20;;;;;;9176200;19;20014;-68
2022/11/27 06:07:14;;;;;;;;;;;6.20;88.20;;;;;;9177333;19;20031;-69
2022/11/27 06:10:18;;;;;;;10.48;3.95;;;6.20;88.10;;;;;;9176795;19;19924;-68
2022/11/27 06:13:21;;;;;;;;;;;6.20;88.00;;;;;;9177478;19;20015;-68
2022/11/27 06:16:25;;;;;;;7.22;3.20;;;6.20;88.10;;;;;;9178083;19;19920;-69
2022/11/27 06:19:30;;;;;;;15.23;5.35;;;6.20;88.10;;;;;;9173195;19;20022;-69
2022/11/27 06:22:35;;;;;;;13.82;4.10;;;6.20;88.10;;;;;;9169848;19;20010;-69
2022/11/27 06:25:39;;;;;;;11.80;3.80;;;6.20;88.10;;;;;;9177245;19;20027;-68
2022/11/27 06:28:43;;;;;;;8.43;3.78;;;6.20;88.10;;;;;;9175409;19;20027;-70
2022/11/27 06:31:47;;;;;;;;;;;6.20;88.10;;;;;;9175114;19;20378;-68
2022/11/27 06:34:50;;;;;;;10.83;3.87;;;6.20;88.10;;;;;;9176889;19;19919;-68
2022/11/27 06:37:56;;;;;;;11.18;4.07;;;6.20;88.00;;;;;;9178244;19;20118;-71
2022/11/27 06:41:03;;;;;;;16.08;4.75;;;6.20;88.10;;;;;;9174852;19;20046;-68
2022/11/27 06:44:07;;;;;;;10.57;4.95;;;6.20;88.00;;;;;;9177285;19;20355;-69
2022/11/27 06:47:11;;;;;;;9.68;4.15;;;6.20;88.00;;;;;;9175093;19;20018;-69
2022/11/27 06:50:14;;;;;;;12.75;4.72;;;6.20;88.00;;;;;;9175796;19;20085;-67
2022/11/27 06:53:20;;;;;;;15.77;5.03;;;6.20;88.00;;;;;;9172800;19;20792;-67
2022/11/27 06:56:26;;;;;;;11.80;3.97;;;6.20;88.00;;;;;;9174765;19;20018;-68
2022/11/27 06:59:30;;;;;;;12.02;4.05;;;6.20;87.90;;;;;;9174718;19;20014;-69
2022/11/27 07:02:34;;;;;;;11.70;4.70;;;6.20;87.90;;;;;;9176159;19;20025;-68
2022/11/27 07:05:38;;;;;;;17.35;6.20;;;6.20;87.90;;;;;;9172039;19;20032;-69
2022/11/27 07:08:44;;;;;;;14.80;4.82;;;6.30;88.00;;;;;;9173757;19;20022;-68
2022/11/27 07:11:48;;;;;;;12.13;4.97;;;6.30;88.00;;;;;;9171175;19;20014;-68
2022/11/27 07:14:51;;;;;;;7.75;3.95;;;6.30;88.00;;;;;;9174255;19;20353;-68
2022/11/27 07:17:55;;;;;;;16.95;5.22;;;6.30;88.00;;;;;;9173815;19;20106;-67
2022/11/27 07:20:59;;;;;;;18.20;5.68;;;6.30;88.00;;;;;;9175049;19;20022;-67
2022/11/27 07:24:05;;;;;;;10.50;3.90;;;6.30;88.00;;;;;;9171484;19;20471;-68
2022/11/27 07:27:09;;;;;;;20.38;5.70;;;6.30;87.90;;;;;;9174943;19;20019;-68
2022/11/27 07:30:13;;;;;;;;;;;6.30;87.90;;;;;;9173195;19;20015;-69
2022/11/27 07:33:16;;;;;;;15.65;5.18;;;6.30;87.90;;;;;;9173295;19;19919;-67
2022/11/27 07:36:22;;;;;;;17.20;5.07;;;6.30;87.90;;;;;;9173301;19;20509;-68
2022/11/27 07:39:28;;;;;;;20.92;4.78;;;6.40;87.90;;;;;;9173016;19;20039;-68
2022/11/27 07:42:52;;;;;;;13.48;4.63;;;6.40;87.90;;;;;;9183607;19;20112;-67
2022/11/27 07:45:56;;;;;;;16.73;5.82;;;6.40;87.90;;;;;;9183550;19;20030;-68
2022/11/27 07:49:00;;;;;;;;;;;6.40;87.80;;;;;;9183516;19;20014;-68
2022/11/27 07:52:04;;;;;;;;;;;6.50;87.90;;;;;;9181678;19;19956;-68
2022/11/27 07:55:10;;;;;;;7.07;2.83;;;6.50;87.80;;;;;;9182487;19;19918;-68
2022/11/27 07:58:14;;;;;;;15.07;5.10;;;6.50;87.80;;;;;;9182888;19;20529;-69
2022/11/27 08:01:21;;;;;;;10.93;5.38;;;6.50;87.80;;;;;;9180767;19;20015;-68
2022/11/27 08:04:25;;;;;;;11.57;5.00;;;6.50;87.80;;;;;;9180353;19;20023;-68
2022/11/27 08:07:29;;;;;;;15.50;5.40;;;6.50;87.80;;;;;;9180372;19;20070;-67
2022/11/27 08:10:36;;;;;;;14.65;5.70;;;6.50;87.80;;;;;;9178338;19;20074;-68
2022/11/27 08:13:40;;;;;;;15.18;6.03;;;6.60;87.80;;;;;;9179575;19;20022;-67
2022/11/27 08:16:44;;;;;;;11.93;4.85;;;6.60;87.80;;;;;;9181078;19;20042;-68
2022/11/27 08:19:48;;;;;;;16.85;5.60;;;6.70;87.80;;;;;;9181172;19;20429;-68
2022/11/27 08:22:52;;;;;;;15.65;6.47;;;6.70;87.80;;;;;;9171745;19;20019;-69
2022/11/27 08:26:06;;;;;;;12.15;4.80;;;6.70;87.80;;;;;;9176365;19;20015;-69
2022/11/27 08:29:12;;;;;;;13.90;5.53;;;6.70;87.70;;;;;;9177120;19;20018;-69
2022/11/27 08:32:16;;;;;;;15.43;4.93;;;6.80;87.70;;;;;;9178529;19;20021;-69
2022/11/27 08:35:21;;;;;;;21.48;5.63;;;6.80;87.70;;;;;;9174813;19;20019;-68
2022/11/27 08:38:26;;;;;;;13.00;5.03;;;6.80;87.60;;;;;;9176085;19;20022;-68
2022/11/27 08:41:32;;;;;;;11.60;4.70;;;6.90;87.60;;;;;;9176857;19;20125;-71
2022/11/27 08:44:36;;;;;;;15.60;4.30;;;6.90;87.60;;;;;;9178290;19;20010;-69
2022/11/27 08:47:42;;;;;;;11.80;4.75;;;6.90;87.70;;;;;;9179257;19;20029;-69
2022/11/27 08:50:46;;;;;;;15.18;5.18;;;7.00;87.60;;;;;;9166189;19;20018;-68
2022/11/27 08:53:49;;;;;;;20.73;5.45;;;7.00;87.50;;;;;;9169593;19;20022;-68
2022/11/27 08:56:55;;;;;;;15.40;5.78;;;7.00;87.50;;;;;;9155196;19;20047;-69
2022/11/27 08:59:59;;;;;;;18.80;5.32;;;7.10;87.50;;;;;;9158956;19;20792;-69
2022/11/27 09:03:03;;;;;;;14.25;5.97;;;7.10;87.50;;;;;;9161221;19;20022;-72
2022/11/27 09:06:07;;;;;;;;;;;7.10;87.40;;;;;;9160217;19;20022;-70
2022/11/27 09:09:11;;;;;;;13.02;5.25;;;7.20;87.50;;;;;;9166181;19;19915;-70
2022/11/27 09:12:17;;;;;;;12.65;5.18;;;7.20;87.40;;;;;;9160272;19;20656;-70
2022/11/27 09:15:21;;;;;;;13.75;4.35;;;7.20;87.30;;;;;;9165121;19;20046;-69
2022/11/27 09:18:24;;;;;;;;;;;7.20;87.40;;;;;;9166487;19;20451;-69
2022/11/27 09:21:31;;;;;;;13.25;5.20;;;7.20;87.30;;;;;;9171360;19;19933;-70
2022/11/27 09:24:34;;;;;;;16.75;5.22;;;7.20;87.40;;;;;;9170605;19;20025;-67
2022/11/27 09:27:40;;;;;;;12.73;5.10;;;7.30;87.30;;;;;;9177251;19;20481;-67
2022/11/27 09:30:44;;;;;;;18.95;5.68;;;7.30;87.40;;;;;;9175080;19;20014;-67
2022/11/27 09:33:48;;;;;;;13.10;5.40;;;7.30;87.30;;;;;;9176167;19;20014;-68
2022/11/27 09:36:51;;;;;;;;;;;7.30;87.30;;;;;;9178235;19;20014;-68
2022/11/27 09:39:56;;;;;;;15.52;5.15;;;7.40;87.40;;;;;;9163102;19;20344;-68
2022/11/27 09:43:08;;;;;;;9.82;5.03;;;7.40;87.30;;;;;;9169041;19;20416;-68
2022/11/27 09:46:20;;;;;;;16.25;5.28;;;7.40;87.30;;;;;;9167796;19;20015;-68
2022/11/27 09:49:28;;;;;;;12.85;4.82;;;7.40;87.20;;;;;;9162640;19;20838;-70
2022/11/27 09:52:39;;;;;;;21.65;7.60;;;7.50;87.30;;;;;;9153181;19;22052;-69
2022/11/27 09:55:47;;;;;;;19.38;4.80;;;7.50;87.30;;;;;;9159684;19;20022;-70
2022/11/27 09:58:58;;;;;;;15.18;4.88;;;7.50;87.30;;;;;;9158083;19;20019;-68
2022/11/27 10:02:02;;;;;;;10.35;4.47;;;7.50;87.30;;;;;;9163082;19;20704;-68
2022/11/27 10:05:11;;;;;;;;;;;7.50;87.30;;;;;;9158529;19;20019;-71
2022/11/27 10:08:29;;;;;;;12.95;4.28;;;7.60;87.30;;;;;;9163870;19;19951;-68
2022/11/27 10:11:45;;;;;;;13.10;4.80;;;7.60;87.30;;;;;;9159718;19;20023;-67
2022/11/27 10:15:02;;;;;;;9.68;5.20;;;7.60;87.30;;;;;;9167699;19;20015;-69
2022/11/27 10:18:14;;;;;;;15.70;5.95;;;7.60;87.30;;;;;;9162783;19;20483;-70
2022/11/27 10:21:30;;;;;;;15.02;5.53;;;7.60;87.30;;;;;;9164871;19;20434;-68
2022/11/27 10:24:42;;;;;;;12.70;4.88;;;7.70;87.30;;;;;;9159313;19;20084;-68
2022/11/27 10:27:56;;;;;;;10.82;4.85;;;7.70;87.30;;;;;;9164081;19;20037;-69
2022/11/27 10:31:04;;;;;;;11.02;5.60;;;7.70;87.30;;;;;;9164052;19;20022;-68
2022/11/27 10:34:21;;;;;;;13.88;4.93;;;7.70;87.30;;;;;;9163494;19;20019;-71
2022/11/27 10:37:29;;;;;;;9.20;4.70;;;7.70;87.30;;;;;;9163963;19;20022;-69
2022/11/27 10:40:40;;;;;;;14.77;5.38;;;7.80;87.30;;;;;;9160827;19;20015;-68
2022/11/27 10:43:43;;;;;;;10.55;4.85;;;7.70;87.20;;;;;;9160039;19;20049;-68
2022/11/27 10:46:51;;;;;;;9.73;5.72;;;7.80;87.30;;;;;;9161806;19;20101;-70
2022/11/27 10:49:56;;;;;;;14.65;5.70;;;7.80;87.30;;;;;;9160415;19;20034;-68
2022/11/27 10:53:03;;;;;;;13.13;5.47;;;7.80;87.30;;;;;;9156669;19;20022;-68
2022/11/27 10:56:33;;;;;;;12.93;5.57;;;7.80;87.30;;;;;;9163193;19;20034;-68
2022/11/27 10:59:44;;;;;;;12.50;4.85;;;7.80;87.30;;;;;;9164209;19;20042;-68
2022/11/27 11:02:50;;;;;;;14.10;6.47;;;7.80;87.20;;;;;;9164784;19;20022;-68
2022/11/27 11:06:01;;;;;;;13.70;4.78;;;7.80;87.30;;;;;;9164667;19;20468;-69
2022/11/27 11:09:26;;;;;;;11.50;4.93;;;7.80;87.20;;;;;;9162585;19;20542;-69
2022/11/27 11:12:30;;;;;;;11.10;4.78;;;7.90;87.30;;;;;;9157155;19;20019;-68
2022/11/27 11:15:34;;;;;;;13.02;6.28;;;7.80;87.20;;;;;;9162672;19;20022;-69
2022/11/27 11:18:47;;;;;;;12.40;5.00;;;7.90;87.30;;;;;;9168054;19;20026;-68
2022/11/27 11:21:52;;;;;;;11.95;5.10;;;7.90;87.40;;;;;;9168940;19;20014;-70
2022/11/27 11:24:55;;;;;;;;;;;7.90;87.30;;;;;;9163868;19;20035;-68
2022/11/27 11:27:59;;;;;;;12.30;5.03;;;7.90;87.30;;;;;;9169915;19;19926;-68
2022/11/27 11:31:07;;;;;;;11.57;5.40;;;7.90;87.20;;;;;;9165871;19;20652;-70
2022/11/27 11:34:22;;;;;;;10.15;5.60;;;7.90;87.30;;;;;;9165788;19;20036;-68
2022/11/27 11:37:28;;;;;;;15.00;7.63;;;7.90;87.30;;;;;;9162513;19;20676;-68
2022/11/27 11:40:34;;;;;;;14.18;6.07;;;7.90;87.30;;;;;;9163316;19;20996;-68
2022/11/27 11:43:38;;;;;;;12.10;6.00;;;7.90;87.30;;;;;;9159231;19;20015;-68
2022/11/27 11:46:51;;;;;;;15.75;5.97;;;7.90;87.30;;;;;;9160559;19;20082;-70
2022/11/27 11:49:58;;;;;;;11.00;5.88;;;8.00;87.40;;;;;;9165048;19;20499;-68
2022/11/27 11:53:08;;;;;;;16.33;7.38;;;8.00;87.40;;;;;;9162121;19;20022;-67
2022/11/27 11:56:28;;;;;;;29.40;11.75;;;8.00;87.40;;;;;;9168369;19;20488;-68
2022/11/27 11:59:40;;;;;;;17.42;8.15;;;8.00;87.40;;;;;;9164384;19;20357;-68
2022/11/27 12:03:03;;;;;;;18.73;5.60;;;8.00;87.40;;;;;;9167567;19;20019;-69
2022/11/27 12:06:36;;;;;;;20.42;6.60;;;8.00;87.40;;;;;;9159346;19;20116;-68
2022/11/27 12:09:52;;;;;;;17.50;5.90;;;8.00;87.40;;;;;;9163715;19;20015;-70
2022/11/27 12:13:05;;;;;;;16.73;6.00;;;8.10;87.40;;;;;;9156379;19;20026;-71
2022/11/27 12:16:18;;;;;;;15.27;6.63;;;8.00;87.40;;;;;;9163372;19;20014;-69
2022/11/27 12:19:47;;;;;;;17.67;6.20;;;8.10;87.50;;;;;;9167779;19;20460;-68
2022/11/27 12:23:32;;;;;;;19.25;6.63;;;8.10;87.50;;;;;;9162109;19;20365;-69
2022/11/27 12:26:52;;;;;;;15.38;6.28;;;8.10;87.40;;;;;;9160815;19;20022;-69
2022/11/27 12:30:11;;;;;;;16.65;6.43;;;8.10;87.40;;;;;;9164632;19;20090;-69
2022/11/27 12:33:37;;;;;;;18.35;7.05;;;8.10;87.40;;;;;;9164693;19;20022;-68
2022/11/27 12:36:59;;;;;;;15.52;6.28;;;8.10;87.40;;;;;;9166006;19;21019;-68
2022/11/27 12:40:23;;;;;;;13.77;7.00;;;8.10;87.40;;;;;;9163309;19;20018;-69
2022/11/27 12:43:34;;;;;;;16.38;7.22;;;8.10;87.50;;;;;;9167806;19;20026;-68
2022/11/27 12:46:55;;;;;;;13.35;6.15;;;8.10;87.40;;;;;;9168740;19;20027;-69
2022/11/27 12:50:03;;;;;;;11.60;6.07;;;8.20;87.50;;;;;;9168777;19;20010;-69
2022/11/27 12:53:16;;;;;;;16.60;8.43;;;8.20;87.50;;;;;;9169850;19;20086;-68
2022/11/27 12:56:29;;;;;;;19.30;7.88;;;8.20;87.50;;;;;;9171587;19;20010;-67
2022/11/27 12:59:42;;;;;;;13.10;7.18;;;8.20;87.50;;;;;;9173805;19;20086;-70
2022/11/27 13:02:54;;;;;;;16.40;8.48;;;8.20;87.50;;;;;;9172810;19;20022;-68
2022/11/27 13:06:03;;;;;;;22.65;10.55;;;8.20;87.60;;;;;;9172761;19;20023;-71
2022/11/27 13:09:15;;;;;;;13.80;7.47;;;8.20;87.50;;;;;;9173973;19;20039;-67
2022/11/27 13:12:24;;;;;;;16.75;7.15;;;8.20;87.50;;;;;;9170219;19;20413;-69
2022/11/27 13:15:36;;;;;;;17.15;6.78;;;8.20;87.50;;;;;;9170814;19;20018;-68
2022/11/27 13:18:45;;;;;;;21.27;7.85;;;8.20;87.50;;;;;;9170913;19;20499;-68
2022/11/27 13:21:50;;;;;;;16.30;7.25;;;8.20;87.50;;;;;;9173080;19;20042;-68
2022/11/27 13:24:54;;;;;;;14.13;6.70;;;8.30;87.60;;;;;;9168508;19;20039;-67
2022/11/27 13:27:59;;;;;;;20.10;8.95;;;8.20;87.50;;;;;;9172372;19;20703;-69
2022/11/27 13:31:07;;;;;;;21.13;7.68;;;8.30;87.60;;;;;;9171664;19;20018;-69
2022/11/27 13:34:19;;;;;;;14.98;7.78;;;8.30;87.60;;;;;;9172696;19;20022;-68
2022/11/27 13:37:29;;;;;;;14.05;7.00;;;8.30;87.60;;;;;;9165717;19;20018;-71
2022/11/27 13:40:39;;;;;;;17.92;6.72;;;8.30;87.60;;;;;;9161534;19;20046;-72
2022/11/27 13:43:45;;;;;;;13.10;6.28;;;8.30;87.60;;;;;;9157131;19;20026;-68
2022/11/27 13:46:53;;;;;;;18.27;7.03;;;8.30;87.50;;;;;;9159189;19;21752;-68
2022/11/27 13:50:03;;;;;;;20.52;7.03;;;8.30;87.60;;;;;;9162077;19;20333;-70
2022/11/27 13:53:08;;;;;;;12.73;6.68;;;8.30;87.60;;;;;;9156994;19;20022;-69
2022/11/27 13:56:12;;;;;;;14.30;6.35;;;8.30;87.60;;;;;;9160094;19;20025;-69
2022/11/27 13:59:17;;;;;;;;;;;8.30;87.60;;;;;;9164900;19;20054;-69
2022/11/27 14:02:22;;;;;;;13.50;6.20;;;8.30;87.60;;;;;;9163310;19;19930;-68
2022/11/27 14:05:37;;;;;;;13.88;6.20;;;8.30;87.60;;;;;;9163021;19;20022;-69
2022/11/27 14:08:51;;;;;;;17.23;7.13;;;8.30;87.50;;;;;;9162869;19;20380;-68
2022/11/27 14:11:55;;;;;;;16.65;7.40;;;8.30;87.60;;;;;;9164518;19;20582;-69
2022/11/27 14:15:05;;;;;;;14.95;7.07;;;8.30;87.50;;;;;;9162693;19;20022;-71
2022/11/27 14:18:18;;;;;;;13.65;7.35;;;8.30;87.60;;;;;;9165017;19;20025;-70
2022/11/27 14:21:26;;;;;;;22.83;7.00;;;8.30;87.50;;;;;;9161450;19;20018;-68
2022/11/27 14:24:39;;;;;;;15.25;6.50;;;8.40;87.60;;;;;;9157137;19;20018;-71
2022/11/27 14:27:44;;;;;;;18.40;8.10;;;8.30;87.50;;;;;;9161892;19;20041;-70
2022/11/27 14:30:48;;;;;;;;;;;8.30;87.50;;;;;;9161482;19;20626;-71
2022/11/27 14:33:54;;;;;;;16.73;6.57;;;8.30;87.50;;;;;;9158977;19;19926;-69
2022/11/27 14:37:23;;;;;;;14.98;7.40;;;8.40;87.60;;;;;;9163866;19;20026;-70
2022/11/27 14:40:28;;;;;;;20.70;8.25;;;8.30;87.50;;;;;;9161461;19;20010;-68
2022/11/27 14:43:32;;;;;;;12.68;7.28;;;8.30;87.50;;;;;;9163256;19;20022;-68
2022/11/27 14:46:38;;;;;;;20.45;7.05;;;8.30;87.50;;;;;;9162736;19;20025;-68
2022/11/27 14:49:44;;;;;;;15.30;7.43;;;8.30;87.60;;;;;;9163653;19;20086;-69
2022/11/27 14:52:52;;;;;;;20.02;8.30;;;8.30;87.60;;;;;;9172183;19;20468;-68
2022/11/27 14:55:59;;;;;;;21.95;8.30;;;8.30;87.60;;;;;;9173195;19;20026;-68
2022/11/27 14:59:03;;;;;;;15.05;7.28;;;8.30;87.60;;;;;;9173858;19;20835;-68
2022/11/27 15:02:18;;;;;;;20.88;9.13;;;8.30;87.60;;;;;;9174220;19;20078;-67
2022/11/27 15:05:29;;;;;;;13.85;7.90;;;8.30;87.60;;;;;;9169505;19;20123;-68
2022/11/27 15:08:35;;;;;;;15.80;8.00;;;8.30;87.60;;;;;;9172311;19;20018;-68
2022/11/27 15:11:40;;;;;;;20.75;8.07;;;8.30;87.60;;;;;;9166902;19;20507;-68
2022/11/27 15:15:03;;;;;;;26.08;8.32;;;8.30;87.60;;;;;;9165087;19;20056;-67
2022/11/27 15:18:09;;;;;;;18.58;7.45;;;8.30;87.60;;;;;;9164969;19;20018;-68
2022/11/27 15:21:21;;;;;;;15.43;7.90;;;8.30;87.70;;;;;;9165470;19;20026;-69
2022/11/27 15:24:33;;;;;;;22.98;8.93;;;8.30;87.80;;;;;;9151052;19;20635;-69
2022/11/27 15:27:46;;;;;;;23.35;10.32;;;8.20;87.60;;;;;;9154806;19;20015;-69
2022/11/27 15:30:51;;;;;;;21.05;8.93;;;8.20;87.60;;;;;;9153889;19;20026;-68
2022/11/27 15:34:00;;;;;;;20.50;8.57;;;8.20;87.70;;;;;;9153251;19;20520;-70
2022/11/27 15:37:22;;;;;;;18.73;9.85;;;8.20;87.70;;;;;;9154259;19;20330;-69
2022/11/27 15:40:32;;;;;;;17.98;8.90;;;8.20;87.70;;;;;;9155444;19;20078;-71
2022/11/27 15:43:36;;;;;;;17.15;8.13;;;8.20;87.70;;;;;;9160346;19;20029;-70
2022/11/27 15:46:43;;;;;;;22.08;9.32;;;8.20;87.70;;;;;;9158550;19;20118;-69
2022/11/27 15:49:47;;;;;;;17.27;8.27;;;8.20;88.30;;;;;;9158603;19;20037;-69
2022/11/27 15:52:52;;;;;;;13.23;7.15;;;8.20;87.70;;;;;;9155640;19;20908;-68
2022/11/27 15:55:58;;;;;;;15.65;7.68;;;8.20;87.80;;;;;;9158750;19;20023;-70
2022/11/27 15:59:01;;;;;;;17.58;7.78;;;8.20;87.80;;;;;;9153550;19;20468;-69
2022/11/27 16:02:06;;;;;;;14.90;7.72;;;8.10;87.80;;;;;;9155722;19;20030;-69
2022/11/27 16:05:10;;;;;;;18.60;6.75;;;8.10;87.80;;;;;;9163829;19;20362;-69
2022/11/27 16:08:16;;;;;;;14.00;7.90;;;8.20;87.80;;;;;;9161625;19;20015;-68
2022/11/27 16:11:21;;;;;;;16.58;8.85;;;8.10;87.80;;;;;;9163192;19;20028;-69
2022/11/27 16:14:25;;;;;;;16.10;7.07;;;8.10;87.80;;;;;;9162628;19;20041;-69
2022/11/27 16:17:29;;;;;;;;;;;8.10;87.80;;;;;;9161905;19;20022;-70
2022/11/27 16:20:33;;;;;;;19.57;7.17;;;8.10;87.80;;;;;;9160875;19;19927;-68
2022/11/27 16:23:40;;;;;;;;;;;8.10;87.80;;;;;;9156500;19;20015;-69
2022/11/27 16:26:44;;;;;;;15.18;6.80;;;8.10;87.70;;;;;;9161138;19;19980;-68